Time;durP1;ratioP1;P1;durP2;ratioP2;P2;SDS_P1;SDS_P2;PMS_P1;PMS_P2;Temp;Humidity;BMP_temperature;BMP_pressure;BME280_temperature;BME280_humidity;BME280_pressure;Samples;Min_cycle;Max_cycle;Signal;HPM_P1;HPM_P2
2021/01/09 00:00:47;;;;;;;21.37;13.67;;;;;;;2.25;79.84;98017.78;5032929;28;20216;-80
2021/01/09 00:03:14;;;;;;;24.43;15.60;;;;;;;2.17;79.79;98021.25;5029946;28;20241;-80
2021/01/09 00:05:40;;;;;;;23.93;14.57;;;;;;;2.19;79.84;98020.41;5029101;28;20238;-81
2021/01/09 00:08:06;;;;;;;23.87;15.20;;;;;;;2.22;79.79;98027.22;5027596;28;20214;-80
2021/01/09 00:10:33;;;;;;;23.20;14.93;;;;;;;2.24;79.93;98022.91;5029203;28;20658;-80
2021/01/09 00:12:59;;;;;;;24.07;14.60;;;;;;;2.23;79.75;98023.81;5033024;28;20271;-80
2021/01/09 00:15:26;;;;;;;22.77;14.73;;;;;;;2.22;79.80;98019.50;5028333;28;20881;-81
2021/01/09 00:17:53;;;;;;;23.60;15.73;;;;;;;2.22;79.73;98020.34;5030430;28;21287;-80
2021/01/09 00:20:21;;;;;;;24.27;16.10;;;;;;;2.25;79.73;98022.91;5030783;28;20238;-80
2021/01/09 00:22:47;;;;;;;23.27;15.47;;;;;;;2.24;79.79;98022.91;5032655;28;20230;-81
2021/01/09 00:25:16;;;;;;;26.17;15.93;;;;;;;2.26;79.73;98026.34;5028843;28;20236;-81
2021/01/09 00:27:42;;;;;;;23.00;15.20;;;;;;;2.26;79.79;98026.34;5031321;28;20218;-80
2021/01/09 00:30:09;;;;;;;25.00;14.90;;;;;;;2.26;79.72;98026.34;5032729;28;20843;-80
2021/01/09 00:32:36;;;;;;;22.20;14.47;;;;;;;2.17;79.91;98024.72;5032326;28;20951;-81
2021/01/09 00:35:03;;;;;;;24.10;14.07;;;;;;;2.22;80.01;98024.66;5030331;28;20374;-80
2021/01/09 00:37:29;;;;;;;24.63;15.93;;;;;;;2.27;79.83;98022.91;5031334;28;20222;-80
2021/01/09 00:39:56;;;;;;;24.73;15.60;;;;;;;2.25;79.93;98022.91;5033024;28;20236;-81
2021/01/09 00:42:22;;;;;;;28.90;17.77;;;;;;;2.26;79.75;98026.34;5031054;28;20237;-81
2021/01/09 00:44:48;;;;;;;27.70;17.50;;;;;;;2.23;80.03;98026.38;5030882;28;20290;-81
2021/01/09 00:47:15;;;;;;;28.70;17.63;;;;;;;2.24;80.16;98036.66;5028529;28;20759;-80
2021/01/09 00:49:42;;;;;;;31.67;18.30;;;;;;;2.19;80.47;98037.53;5029142;28;20307;-80
2021/01/09 00:52:08;;;;;;;30.10;17.17;;;;;;;2.14;80.68;98031.59;5033181;28;20218;-80
2021/01/09 00:54:36;;;;;;;29.90;17.83;;;;;;;2.11;80.62;98033.31;5029688;28;20585;-81
2021/01/09 00:57:02;;;;;;;33.00;17.87;;;;;;;2.09;80.79;98029.88;5033040;28;20214;-82
2021/01/09 00:59:28;;;;;;;34.33;19.53;;;;;;;2.05;81.02;98033.34;5030931;28;20214;-81
2021/01/09 01:01:56;;;;;;;31.40;18.87;;;;;;;2.03;81.11;98032.50;5027255;28;21284;-80
2021/01/09 01:14:44;;;;;;;33.90;19.60;;;;;;;1.98;81.54;98052.25;4863227;26;20242;-80
2021/01/09 01:17:10;;;;;;;34.20;19.93;;;;;;;2.00;81.63;98058.25;5013752;28;20225;-80
2021/01/09 01:19:36;;;;;;;32.70;18.50;;;;;;;1.99;81.34;98061.69;5014573;28;20246;-80
2021/01/09 01:22:03;;;;;;;32.60;18.73;;;;;;;1.97;81.56;98058.28;5016420;28;20248;-80
2021/01/09 01:24:29;;;;;;;33.13;19.20;;;;;;;1.95;81.57;98065.16;5014918;28;20253;-81
2021/01/09 01:26:55;;;;;;;31.83;18.30;;;;;;;1.89;81.73;98065.16;5014628;28;20225;-80
2021/01/09 01:29:21;;;;;;;32.80;17.67;;;;;;;1.90;81.83;98079.75;5010139;28;20234;-82
2021/01/09 01:31:48;;;;;;;30.10;17.33;;;;;;;1.90;81.94;98082.31;5013040;28;20785;-81
2021/01/09 01:34:15;;;;;;;29.00;15.67;;;;;;;1.82;81.95;98086.63;5015261;28;20223;-83
2021/01/09 01:36:47;;;;;;;30.73;17.60;;;;;;;1.83;82.08;98084.06;5014687;28;20214;-81
2021/01/09 01:39:14;;;;;;;35.13;19.53;;;;;;;1.88;81.89;98089.19;5014319;28;20214;-80
2021/01/09 01:41:40;;;;;;;33.23;19.13;;;;;;;1.84;82.23;98090.03;5013229;28;20272;-81
2021/01/09 01:44:06;;;;;;;34.43;19.47;;;;;;;1.87;82.09;98090.88;5014121;28;20260;-80
2021/01/09 01:46:32;;;;;;;33.37;18.83;;;;;;;1.89;82.01;98088.31;5011648;28;20768;-80
2021/01/09 01:48:59;;;;;;;33.77;18.73;;;;;;;1.88;81.94;98092.63;5014680;28;20215;-81
2021/01/09 01:51:26;;;;;;;32.27;17.23;;;;;;;1.83;82.02;98101.22;5013308;28;20222;-81
2021/01/09 01:53:54;;;;;;;32.17;17.33;;;;;;;1.77;82.27;98089.25;5013915;28;20884;-80
2021/01/09 01:56:21;;;;;;;31.10;17.73;;;;;;;1.80;82.20;98094.38;5016115;28;20237;-80
2021/01/09 01:58:47;;;;;;;31.03;17.73;;;;;;;1.79;82.17;98096.97;5012371;28;20215;-80
2021/01/09 02:01:15;;;;;;;29.93;17.77;;;;;;;1.85;82.20;98102.06;5015212;28;20225;-81
2021/01/09 02:03:41;;;;;;;30.87;17.30;;;;;;;1.91;82.14;98096.88;5015710;28;20913;-79
2021/01/09 02:06:12;;;;;;;27.97;15.90;;;;;;;1.93;81.85;98096.03;5012597;28;20833;-80
2021/01/09 02:08:41;;;;;;;28.83;16.67;;;;;;;1.93;81.93;98097.75;5014640;28;20904;-80
2021/01/09 02:11:16;;;;;;;29.53;16.93;;;;;;;1.95;81.90;98096.03;5015191;28;20296;-80
2021/01/09 02:13:45;;;;;;;27.80;16.37;;;;;;;1.93;81.85;98090.03;5013565;28;20224;-81
2021/01/09 02:16:11;;;;;;;30.37;17.40;;;;;;;1.93;81.63;98096.03;5013054;28;20327;-80
2021/01/09 02:18:40;;;;;;;30.07;17.87;;;;;;;1.93;81.56;98096.03;5012559;28;20309;-80
2021/01/09 02:21:11;;;;;;;28.83;17.47;;;;;;;1.93;81.60;98093.44;5014756;28;20256;-79
2021/01/09 02:23:38;;;;;;;31.03;17.53;;;;;;;1.93;81.63;98095.19;5013002;28;20307;-82
2021/01/09 02:26:04;;;;;;;28.60;16.83;;;;;;;1.91;81.55;98091.72;5011277;28;20318;-81
2021/01/09 02:28:30;;;;;;;27.67;16.20;;;;;;;1.89;81.56;98085.75;5010744;28;20735;-80
2021/01/09 02:30:59;;;;;;;33.17;19.37;;;;;;;1.86;81.53;98084.06;5014051;28;20980;-79
2021/01/09 02:33:26;;;;;;;30.33;17.47;;;;;;;1.83;81.49;98078.06;5012748;28;20245;-81
2021/01/09 02:35:54;;;;;;;29.53;16.90;;;;;;;1.80;81.83;98084.09;5007753;28;20634;-80
2021/01/09 02:38:20;;;;;;;31.37;17.23;;;;;;;1.82;81.83;98091.78;5017061;28;20233;-80
2021/01/09 02:40:47;;;;;;;30.47;17.33;;;;;;;1.85;81.91;98089.19;5016350;28;20223;-81
2021/01/09 02:43:13;;;;;;;30.00;16.80;;;;;;;1.88;81.84;98081.47;5016872;28;20863;-80
2021/01/09 02:45:40;;;;;;;29.83;17.00;;;;;;;1.90;81.79;98090.03;5014914;28;20241;-80
2021/01/09 02:48:08;;;;;;;27.67;16.00;;;;;;;1.91;81.64;98089.16;5018002;28;20222;-81
2021/01/09 02:50:34;;;;;;;26.13;15.63;;;;;;;1.89;81.80;98089.19;5017707;28;20981;-80
2021/01/09 02:53:00;;;;;;;28.53;16.90;;;;;;;1.87;81.83;98090.03;5017082;28;20213;-81
2021/01/09 02:55:27;;;;;;;29.77;16.57;;;;;;;1.88;81.72;98092.63;5014605;28;20231;-80
2021/01/09 02:57:54;;;;;;;25.77;15.73;;;;;;;1.92;81.79;98085.75;5016400;28;20222;-80
2021/01/09 03:00:20;;;;;;;34.97;17.90;;;;;;;1.97;81.56;98096.88;5014998;28;20220;-79
2021/01/09 03:02:47;;;;;;;28.67;17.63;;;;;;;2.00;81.56;98093.41;5016126;28;20238;-82
2021/01/09 03:05:13;;;;;;;35.73;18.90;;;;;;;1.98;81.75;98083.13;5017389;28;20284;-80
2021/01/09 03:07:39;;;;;;;30.87;18.07;;;;;;;1.99;81.49;98092.56;5016244;28;20213;-80
2021/01/09 03:10:07;;;;;;;34.80;19.47;;;;;;;1.98;81.40;98082.28;5017624;28;20222;-80
2021/01/09 03:12:33;;;;;;;30.03;17.87;;;;;;;2.00;81.55;98089.13;5018295;28;20214;-80
2021/01/09 03:15:00;;;;;;;34.63;17.83;;;;;;;1.98;81.48;98093.41;5015727;28;20843;-81
2021/01/09 03:17:26;;;;;;;32.57;17.70;;;;;;;1.98;81.44;98092.56;5016733;28;20706;-80
2021/01/09 03:19:52;;;;;;;31.80;17.57;;;;;;;1.96;81.51;98094.28;5015465;28;20246;-82
2021/01/09 03:22:19;;;;;;;28.77;17.13;;;;;;;1.94;81.70;98091.72;5018052;28;20732;-80
2021/01/09 03:24:45;;;;;;;31.67;18.10;;;;;;;1.99;81.60;98099.44;5016582;28;20231;-81
2021/01/09 03:27:11;;;;;;;28.43;16.97;;;;;;;2.00;81.60;98094.25;5016694;28;20215;-80
2021/01/09 03:29:37;;;;;;;27.43;15.90;;;;;;;2.00;81.54;98094.25;5015348;28;20226;-80
2021/01/09 03:32:05;;;;;;;30.77;17.53;;;;;;;2.01;81.59;98097.72;5018671;28;20217;-80
2021/01/09 03:34:32;;;;;;;29.27;17.03;;;;;;;2.04;81.50;98098.56;5014724;28;20222;-81
2021/01/09 03:36:58;;;;;;;29.17;16.63;;;;;;;2.07;81.45;98100.22;5016353;28;20219;-79
2021/01/09 03:39:24;;;;;;;29.53;16.40;;;;;;;2.10;81.43;98095.94;5017395;28;20650;-80
2021/01/09 03:41:50;;;;;;;29.87;17.87;;;;;;;2.08;81.04;98099.38;5017769;28;20215;-79
2021/01/09 03:44:16;;;;;;;28.53;17.23;;;;;;;2.08;81.06;98100.22;5017456;28;20902;-81
2021/01/09 03:46:42;;;;;;;32.47;18.73;;;;;;;2.07;81.03;98098.50;5017399;28;20233;-81
2021/01/09 03:49:10;;;;;;;32.77;18.20;;;;;;;2.04;81.04;98097.66;5018772;28;20219;-82
2021/01/09 03:51:36;;;;;;;32.43;18.70;;;;;;;2.02;81.03;98101.97;5015967;28;20233;-81
2021/01/09 03:54:02;;;;;;;33.60;17.97;;;;;;;1.99;81.04;98102.00;5016297;28;20213;-81
2021/01/09 03:56:28;;;;;;;32.10;17.73;;;;;;;1.97;81.36;98104.59;5015974;28;20291;-81
2021/01/09 03:58:54;;;;;;;32.37;17.80;;;;;;;1.96;81.03;98096.88;5015113;28;20207;-80
2021/01/09 04:01:21;;;;;;;35.83;18.73;;;;;;;1.96;81.17;98100.28;5016975;28;20238;-79
2021/01/09 04:03:47;;;;;;;35.20;19.37;;;;;;;1.95;81.17;98114.03;5016650;28;20235;-80
2021/01/09 04:06:14;;;;;;;34.03;18.57;;;;;;;1.96;81.25;98104.59;5016982;28;20238;-79
2021/01/09 04:08:40;;;;;;;30.67;18.20;;;;;;;1.95;81.17;98103.75;5014972;28;20219;-80
2021/01/09 04:11:06;;;;;;;35.27;18.67;;;;;;;1.96;81.16;98104.59;5018093;28;20218;-80
2021/01/09 04:13:33;;;;;;;35.63;18.77;;;;;;;1.97;81.19;98114.88;5014725;28;20222;-81
2021/01/09 04:16:02;;;;;;;35.17;19.03;;;;;;;1.98;81.27;98119.13;5013828;28;20239;-80
2021/01/09 04:18:28;;;;;;;35.03;18.20;;;;;;;1.98;81.38;98116.56;5017513;28;20207;-80
2021/01/09 04:20:54;;;;;;;32.03;19.47;;;;;;;2.01;81.18;98119.13;5016681;28;20250;-80
2021/01/09 04:23:21;;;;;;;32.53;17.60;;;;;;;1.97;81.22;98117.44;5016746;28;20238;-81
2021/01/09 04:25:47;;;;;;;33.53;18.33;;;;;;;1.97;81.26;98122.59;5014980;28;20239;-82
2021/01/09 04:28:14;;;;;;;36.10;18.37;;;;;;;1.95;81.40;98123.44;5015842;28;20225;-81
2021/01/09 04:30:40;;;;;;;33.87;17.83;;;;;;;1.94;81.29;98127.75;5019826;28;20233;-81
2021/01/09 04:33:06;;;;;;;32.27;18.13;;;;;;;1.93;81.44;98133.75;5021149;28;20211;-81
2021/01/09 04:35:32;;;;;;;33.63;18.03;;;;;;;1.92;80.99;98126.91;5020284;28;20222;-80
2021/01/09 04:37:59;;;;;;;32.33;17.60;;;;;;;1.91;81.35;98130.31;5020181;28;20219;-79
2021/01/09 04:40:25;;;;;;;31.53;17.70;;;;;;;1.87;81.46;98126.06;5019758;28;20272;-80
2021/01/09 04:42:52;;;;;;;32.97;17.27;;;;;;;1.87;81.46;98132.03;5019622;28;20327;-79
2021/01/09 04:45:18;;;;;;;32.43;17.50;;;;;;;1.88;81.18;98138.06;5019119;28;20722;-81
2021/01/09 04:47:47;;;;;;;30.33;16.63;;;;;;;1.86;81.13;98127.78;5019244;28;20301;-80
2021/01/09 04:50:14;;;;;;;28.37;16.27;;;;;;;1.87;81.46;98139.75;5020610;28;20219;-80
2021/01/09 04:52:40;;;;;;;29.70;16.63;;;;;;;1.91;81.48;98143.19;5020417;28;20215;-80
2021/01/09 04:55:07;;;;;;;27.77;16.30;;;;;;;1.87;81.32;98142.34;5018579;28;20329;-81
2021/01/09 04:57:34;;;;;;;27.53;15.60;;;;;;;1.87;81.42;98146.63;5021083;28;20222;-81
2021/01/09 05:00:00;;;;;;;28.90;17.27;;;;;;;1.88;81.39;98148.34;5020122;28;20917;-82
2021/01/09 05:02:27;;;;;;;26.70;16.07;;;;;;;1.88;81.29;98153.50;5018111;28;20746;-80
2021/01/09 05:04:53;;;;;;;23.27;13.73;;;;;;;1.81;81.31;98149.25;5018836;28;20246;-80
2021/01/09 05:07:20;;;;;;;26.40;15.07;;;;;;;1.79;81.77;98148.38;5019058;28;20302;-80
2021/01/09 05:09:46;;;;;;;29.43;16.57;;;;;;;1.83;81.56;98158.66;5017407;28;20609;-80
2021/01/09 05:12:14;;;;;;;30.37;16.97;;;;;;;1.88;81.42;98153.50;5021230;28;20219;-81
2021/01/09 05:14:42;;;;;;;25.00;15.43;;;;;;;1.87;81.18;98151.78;5019370;28;20253;-80
2021/01/09 05:17:08;;;;;;;27.13;15.63;;;;;;;1.88;81.46;98153.50;5020904;28;20215;-81
2021/01/09 05:19:35;;;;;;;26.90;15.87;;;;;;;1.87;81.38;98156.91;5019547;28;20288;-81
2021/01/09 05:22:02;;;;;;;26.27;14.93;;;;;;;1.82;80.81;98154.38;5019110;28;20217;-81
2021/01/09 05:24:28;;;;;;;26.63;15.37;;;;;;;1.84;81.07;98156.91;5019833;28;20830;-80
2021/01/09 05:26:54;;;;;;;29.80;16.13;;;;;;;1.83;81.32;98162.94;5019553;28;20219;-80
2021/01/09 05:29:21;;;;;;;24.63;15.20;;;;;;;1.82;81.13;98154.38;5020425;28;20315;-80
2021/01/09 05:31:49;;;;;;;27.77;15.23;;;;;;;1.81;81.20;98157.81;5019842;28;20214;-80
2021/01/09 05:34:15;;;;;;;26.87;15.43;;;;;;;1.79;81.21;98162.09;5019709;28;20237;-80
2021/01/09 05:36:42;;;;;;;28.27;15.73;;;;;;;1.78;81.17;98162.94;5019959;28;20217;-80
2021/01/09 05:39:08;;;;;;;26.20;14.87;;;;;;;1.79;81.24;98163.81;5020239;28;20222;-81
2021/01/09 05:41:34;;;;;;;23.73;14.47;;;;;;;1.77;81.38;98165.56;5020112;28;20219;-81
2021/01/09 05:44:01;;;;;;;22.47;13.40;;;;;;;1.76;81.22;98172.38;5019233;28;20277;-80
2021/01/09 05:46:29;;;;;;;25.30;13.83;;;;;;;1.78;81.32;98174.97;5020190;28;20321;-82
2021/01/09 05:48:57;;;;;;;22.47;14.13;;;;;;;1.80;81.30;98175.81;5018786;28;20219;-79
2021/01/09 05:51:23;;;;;;;25.67;14.07;;;;;;;1.81;81.20;98177.53;5016640;28;20218;-80
2021/01/09 05:53:50;;;;;;;22.73;13.17;;;;;;;1.80;81.16;98179.25;5018104;28;20293;-80
2021/01/09 05:56:17;;;;;;;24.77;15.67;;;;;;;1.81;81.19;98180.94;5019600;28;20906;-80
2021/01/09 05:58:44;;;;;;;22.80;14.00;;;;;;;1.77;80.88;98184.41;5018389;28;20222;-79
2021/01/09 06:01:12;;;;;;;22.13;13.80;;;;;;;1.72;81.29;98184.41;5018051;28;20214;-80
2021/01/09 06:03:43;;;;;;;23.33;14.17;;;;;;;1.72;81.38;98188.69;5011538;28;20237;-80
2021/01/09 06:06:23;;;;;;;23.27;13.67;;;;;;;1.71;81.20;98193.00;5022096;28;20273;-81
2021/01/09 06:08:54;;;;;;;24.13;13.80;;;;;;;1.73;81.53;98190.41;5022278;28;20210;-81
2021/01/09 06:11:29;;;;;;;28.13;15.67;;;;;;;1.77;81.31;98197.25;5024140;28;20218;-80
2021/01/09 06:13:56;;;;;;;24.33;14.50;;;;;;;1.79;81.48;98189.53;5020358;28;20218;-82
2021/01/09 06:16:23;;;;;;;26.07;14.63;;;;;;;1.81;81.26;98196.38;5018771;28;20242;-80
2021/01/09 06:18:50;;;;;;;22.93;13.60;;;;;;;1.83;81.20;98204.09;5018788;28;20223;-81
2021/01/09 06:21:18;;;;;;;24.13;14.70;;;;;;;1.82;81.32;98205.81;5020778;28;20213;-81
2021/01/09 06:23:44;;;;;;;27.07;14.90;;;;;;;1.81;81.17;98205.81;5020631;28;20245;-81
2021/01/09 06:26:11;;;;;;;26.37;14.77;;;;;;;1.82;81.36;98205.81;5019263;28;20380;-82
2021/01/09 06:28:38;;;;;;;24.20;13.23;;;;;;;1.83;81.41;98206.66;5020622;28;20631;-82
2021/01/09 06:31:07;;;;;;;21.43;12.47;;;;;;;1.83;81.32;98217.81;5020764;28;20219;-81
2021/01/09 06:33:38;;;;;;;19.60;12.43;;;;;;;1.87;81.09;98210.94;5020972;28;20217;-79
2021/01/09 06:36:08;;;;;;;20.10;12.07;;;;;;;1.83;80.78;98211.81;5020081;28;20766;-79
2021/01/09 06:38:35;;;;;;;21.40;12.47;;;;;;;1.83;81.22;98209.25;5022335;28;20678;-81
2021/01/09 06:41:02;;;;;;;21.57;13.17;;;;;;;1.84;81.01;98213.50;5020409;28;20259;-81
2021/01/09 06:43:29;;;;;;;21.23;12.07;;;;;;;1.80;81.13;98216.97;5020346;28;20244;-80
2021/01/09 06:45:55;;;;;;;23.33;12.60;;;;;;;1.72;81.18;98220.41;5020277;28;20249;-80
2021/01/09 06:48:22;;;;;;;24.37;13.20;;;;;;;1.67;81.53;98221.28;5018447;28;20225;-80
2021/01/09 06:50:48;;;;;;;25.37;14.13;;;;;;;1.60;81.43;98212.72;5019765;28;20231;-80
2021/01/09 06:53:15;;;;;;;20.47;12.97;;;;;;;1.59;81.79;98212.72;5019746;28;20223;-80
2021/01/09 06:56:08;;;;;;;23.57;13.10;;;;;;;1.52;81.13;98209.28;5018111;28;20785;-79
2021/01/09 06:58:36;;;;;;;26.37;15.07;;;;;;;1.49;81.58;98214.44;5018799;28;20249;-81
2021/01/09 07:01:21;;;;;;;27.83;14.30;;;;;;;1.54;81.31;98220.44;5020259;28;20222;-81
2021/01/09 07:03:47;;;;;;;26.00;14.27;;;;;;;1.56;81.52;98223.84;5020405;28;20664;-80
2021/01/09 07:06:14;;;;;;;23.37;14.67;;;;;;;1.56;81.38;98229.00;5019867;28;20243;-80
2021/01/09 07:08:43;;;;;;;32.10;18.17;;;;;;;1.57;81.36;98227.31;5017709;28;20280;-80
2021/01/09 07:11:14;;;;;;;24.43;14.87;;;;;;;1.57;81.38;98235.88;5023499;28;20222;-80
2021/01/09 07:13:40;;;;;;;36.30;21.37;;;;;;;1.60;81.30;98241.00;5018991;28;20683;-82
2021/01/09 07:16:07;;;;;;;26.87;16.03;;;;;;;1.54;81.68;98246.13;5019840;28;20284;-81
2021/01/09 07:18:36;;;;;;;24.83;15.23;;;;;;;1.57;81.46;98248.72;5020288;28;20373;-81
2021/01/09 07:21:03;;;;;;;24.43;13.47;;;;;;;1.62;81.29;98253.84;5020444;28;20226;-80
2021/01/09 07:23:30;;;;;;;25.17;13.83;;;;;;;1.63;81.15;98250.44;5019044;28;20722;-80
2021/01/09 07:25:57;;;;;;;20.80;11.43;;;;;;;1.61;81.37;98253.00;5019798;28;20325;-81
2021/01/09 07:28:24;;;;;;;22.80;11.73;;;;;;;1.59;81.13;98259.84;5017181;28;20304;-82
2021/01/09 07:31:02;;;;;;;19.57;11.53;;;;;;;1.57;81.06;98253.84;5019807;28;20214;-81
2021/01/09 07:33:30;;;;;;;18.40;11.10;;;;;;;1.57;80.72;98263.28;5018530;28;20250;-81
2021/01/09 07:35:56;;;;;;;19.10;10.63;;;;;;;1.53;80.94;98255.56;5019997;28;20235;-81
2021/01/09 07:38:23;;;;;;;19.93;10.67;;;;;;;1.53;80.91;98262.44;5018373;28;20216;-81
2021/01/09 07:40:52;;;;;;;16.83;10.53;;;;;;;1.53;80.57;98259.88;5019232;28;20218;-80
2021/01/09 07:43:34;;;;;;;17.90;10.43;;;;;;;1.59;80.36;98262.44;5020453;28;20992;-82
2021/01/09 07:46:01;;;;;;;17.37;10.13;;;;;;;1.59;80.40;98265.00;5020265;28;20284;-79
2021/01/09 07:48:31;;;;;;;15.90;9.83;;;;;;;1.61;80.08;98272.72;5019887;28;20721;-80
2021/01/09 07:50:57;;;;;;;16.33;10.67;;;;;;;1.64;79.90;98276.16;5018318;28;21051;-80
2021/01/09 07:53:26;;;;;;;13.87;9.00;;;;;;;1.60;79.68;98266.72;5020031;28;20219;-80
2021/01/09 07:55:53;;;;;;;13.50;7.97;;;;;;;1.59;79.36;98274.44;5018501;28;20239;-80
2021/01/09 07:58:19;;;;;;;17.97;10.00;;;;;;;1.53;78.89;98270.16;5019771;28;20280;-81
2021/01/09 08:00:47;;;;;;;15.27;10.13;;;;;;;1.45;79.16;98271.84;5019754;28;20219;-80
2021/01/09 08:03:14;;;;;;;15.53;10.03;;;;;;;1.38;79.28;98268.44;5018391;28;20249;-80
2021/01/09 08:05:40;;;;;;;13.00;8.50;;;;;;;1.31;79.40;98267.56;5023073;28;20242;-81
2021/01/09 08:08:06;;;;;;;14.13;8.73;;;;;;;1.25;79.29;98277.88;5022770;28;20222;-80
2021/01/09 08:10:33;;;;;;;16.83;9.43;;;;;;;1.23;79.35;98277.00;5023777;28;20746;-79
2021/01/09 08:13:01;;;;;;;24.20;13.03;;;;;;;1.21;79.59;98288.13;5024148;28;20218;-79
2021/01/09 08:15:28;;;;;;;18.73;9.60;;;;;;;1.20;79.76;98287.28;5023511;28;20296;-81
2021/01/09 08:17:58;;;;;;;17.33;10.37;;;;;;;1.17;79.77;98287.25;5021323;28;20589;-80
2021/01/09 08:20:25;;;;;;;18.10;10.50;;;;;;;1.12;80.09;98288.97;5021420;28;20494;-80
2021/01/09 08:22:53;;;;;;;19.90;10.87;;;;;;;1.11;79.91;98297.53;5022782;28;20782;-80
2021/01/09 08:25:19;;;;;;;16.90;9.83;;;;;;;1.13;79.94;98303.53;5022791;28;20245;-80
2021/01/09 08:27:47;;;;;;;21.77;11.83;;;;;;;1.12;79.92;98302.69;5023093;28;20690;-80
2021/01/09 08:30:15;;;;;;;21.77;11.27;;;;;;;1.17;79.73;98307.81;5023921;28;20227;-80
2021/01/09 08:32:42;;;;;;;20.43;11.40;;;;;;;1.19;79.73;98316.38;5022781;28;20672;-80
2021/01/09 08:35:10;;;;;;;20.07;11.73;;;;;;;1.18;79.75;98314.69;5023049;28;20239;-81
2021/01/09 08:37:37;;;;;;;16.13;10.20;;;;;;;1.14;79.65;98313.81;5021684;28;20230;-80
2021/01/09 08:40:11;;;;;;;18.20;10.27;;;;;;;1.15;79.58;98319.81;5024094;28;20227;-80
2021/01/09 08:42:37;;;;;;;16.17;9.57;;;;;;;1.15;79.88;98323.22;5023122;28;20314;-80
2021/01/09 08:45:04;;;;;;;16.40;9.97;;;;;;;1.14;79.92;98318.13;5022800;28;20323;-81
2021/01/09 08:47:31;;;;;;;15.20;9.57;;;;;;;1.12;79.72;98312.09;5022292;28;20215;-79
2021/01/09 08:49:58;;;;;;;16.70;9.07;;;;;;;1.12;79.95;98318.09;5021890;28;20210;-80
2021/01/09 08:52:26;;;;;;;14.70;9.40;;;;;;;1.13;80.09;98334.38;5018980;28;20219;-80
2021/01/09 08:54:54;;;;;;;17.50;9.50;;;;;;;1.13;80.28;98324.09;5022441;28;20293;-80
2021/01/09 08:57:20;;;;;;;13.13;8.60;;;;;;;1.13;80.33;98322.38;5022015;28;20729;-80
2021/01/09 08:59:46;;;;;;;13.43;8.70;;;;;;;1.16;80.03;98336.94;5022194;28;20276;-80
2021/01/09 09:02:16;;;;;;;12.80;8.43;;;;;;;1.17;80.26;98333.50;5022280;28;20215;-81
2021/01/09 09:04:43;;;;;;;14.03;9.10;;;;;;;1.23;80.23;98340.38;5021880;28;20278;-81
2021/01/09 09:07:09;;;;;;;14.37;8.63;;;;;;;1.30;80.15;98340.38;5022174;28;20211;-80
2021/01/09 09:09:39;;;;;;;13.77;9.40;;;;;;;1.41;79.90;98347.25;5019094;28;20215;-79
2021/01/09 09:12:06;;;;;;;13.23;8.53;;;;;;;1.47;79.49;98348.13;5024530;28;20215;-81
2021/01/09 09:14:33;;;;;;;13.23;8.67;;;;;;;1.54;79.00;98346.41;5022111;28;20233;-80
2021/01/09 09:17:00;;;;;;;15.60;9.00;;;;;;;1.63;78.89;98346.41;5022096;28;20280;-79
2021/01/09 09:19:26;;;;;;;12.80;8.43;;;;;;;1.82;78.59;98348.97;5021720;28;20221;-79
2021/01/09 09:21:57;;;;;;;12.00;7.77;;;;;;;1.96;77.41;98352.41;5020730;28;20254;-80
2021/01/09 09:24:38;;;;;;;13.57;8.17;;;;;;;1.93;76.87;98349.84;5019189;28;20640;-80
2021/01/09 09:27:18;;;;;;;10.43;7.07;;;;;;;1.96;76.51;98354.97;5022626;28;20222;-81
2021/01/09 09:29:45;;;;;;;11.07;7.10;;;;;;;1.97;75.79;98358.41;5022465;28;20226;-80
2021/01/09 09:32:22;;;;;;;11.23;7.20;;;;;;;1.94;74.99;98361.84;5021129;28;20219;-79
2021/01/09 09:34:48;;;;;;;11.30;7.03;;;;;;;1.87;75.41;98362.69;5021640;28;20288;-79
2021/01/09 09:37:14;;;;;;;10.23;6.63;;;;;;;1.76;75.81;98364.44;5020270;28;20210;-81
2021/01/09 09:39:42;;;;;;;10.60;7.20;;;;;;;1.73;75.86;98355.84;5021888;28;20218;-81
2021/01/09 09:42:08;;;;;;;9.70;6.17;;;;;;;1.71;75.93;98362.72;5020278;28;20229;-80
2021/01/09 09:44:37;;;;;;;12.60;8.10;;;;;;;1.74;76.26;98367.84;5021345;28;20293;-80
2021/01/09 09:47:04;;;;;;;11.73;7.73;;;;;;;1.76;76.29;98367.00;5020894;28;20736;-80
2021/01/09 09:49:31;;;;;;;11.07;7.20;;;;;;;1.83;76.02;98366.16;5021428;28;20219;-80
2021/01/09 09:51:57;;;;;;;10.67;7.23;;;;;;;1.89;75.98;98367.00;5019597;28;20219;-80
2021/01/09 09:54:32;;;;;;;10.23;6.97;;;;;;;1.94;74.35;98369.56;5018153;28;20313;-81
2021/01/09 09:56:59;;;;;;;10.87;7.23;;;;;;;1.95;74.62;98371.28;5020360;28;20217;-80
2021/01/09 09:59:30;;;;;;;11.90;6.10;;;;;;;1.98;73.87;98371.28;5020804;28;20218;-80
2021/01/09 10:02:00;;;;;;;10.90;7.10;;;;;;;2.00;74.22;98369.56;5019832;28;20536;-82
2021/01/09 10:04:27;;;;;;;9.00;6.20;;;;;;;2.07;74.49;98375.56;5016393;28;20865;-80
2021/01/09 10:06:53;;;;;;;8.63;5.97;;;;;;;2.18;74.27;98365.25;5021188;28;20211;-80
2021/01/09 10:09:21;;;;;;;8.10;5.80;;;;;;;2.33;73.23;98364.38;5018194;28;20590;-80
2021/01/09 10:11:49;;;;;;;8.87;5.90;;;;;;;2.44;73.08;98360.91;5022699;28;20310;-81
2021/01/09 10:14:16;;;;;;;10.97;6.33;;;;;;;2.57;73.23;98363.44;5021231;28;20281;-80
2021/01/09 10:16:42;;;;;;;11.27;6.03;;;;;;;2.70;73.16;98357.38;5020904;28;20231;-81
2021/01/09 10:19:11;;;;;;;10.10;6.60;;;;;;;2.83;72.92;98361.66;5020842;28;20818;-81
2021/01/09 10:21:38;;;;;;;10.10;6.60;;;;;;;2.99;72.46;98364.13;5021085;28;20241;-81
2021/01/09 10:24:04;;;;;;;9.53;6.77;;;;;;;3.02;71.04;98358.97;5021384;28;20245;-83
2021/01/09 10:26:32;;;;;;;9.60;6.27;;;;;;;2.98;70.61;98357.25;5020425;28;20904;-82
2021/01/09 10:28:59;;;;;;;9.60;6.73;;;;;;;2.94;69.95;98355.56;5020794;28;20233;-82
2021/01/09 10:31:30;;;;;;;10.10;7.30;;;;;;;2.76;70.15;98352.22;5021556;28;20723;-82
2021/01/09 10:33:56;;;;;;;10.17;7.50;;;;;;;2.68;70.53;98351.38;5018555;28;20970;-82
2021/01/09 10:36:24;;;;;;;10.37;7.60;;;;;;;2.61;70.22;98362.56;5017356;28;21015;-82
2021/01/09 10:38:50;;;;;;;10.37;6.97;;;;;;;2.62;70.76;98354.00;5018861;28;20297;-82
2021/01/09 10:41:16;;;;;;;11.00;7.60;;;;;;;2.64;70.15;98344.53;5022117;28;20273;-82
2021/01/09 10:43:43;;;;;;;10.67;7.77;;;;;;;2.69;69.97;98342.81;5021799;28;20321;-81
2021/01/09 10:46:09;;;;;;;9.00;6.37;;;;;;;2.75;69.56;98344.50;5019418;28;20239;-81
2021/01/09 10:48:36;;;;;;;9.40;6.77;;;;;;;2.91;70.00;98342.72;5016528;28;20218;-81
2021/01/09 10:51:03;;;;;;;8.97;6.80;;;;;;;3.15;69.38;98340.00;5020267;28;20222;-85
2021/01/09 10:53:29;;;;;;;8.27;5.83;;;;;;;3.32;69.13;98339.03;5019919;28;20724;-80
2021/01/09 10:55:56;;;;;;;7.50;5.83;;;;;;;3.38;68.95;98342.44;5019044;28;20853;-80
2021/01/09 10:58:22;;;;;;;9.10;6.70;;;;;;;3.32;68.64;98339.03;5019234;28;20219;-81
2021/01/09 11:00:48;;;;;;;10.77;7.60;;;;;;;3.15;68.11;98334.84;5016365;28;20214;-80
2021/01/09 11:03:15;;;;;;;10.33;7.00;;;;;;;2.95;69.07;98349.56;5020753;28;20235;-79
2021/01/09 11:05:44;;;;;;;9.20;6.37;;;;;;;2.84;69.60;98349.59;5014426;28;20235;-82
2021/01/09 11:08:10;;;;;;;9.37;6.03;;;;;;;2.78;70.02;98350.50;5019518;28;20230;-80
2021/01/09 11:10:36;;;;;;;8.67;6.07;;;;;;;2.80;69.02;98356.50;5020613;28;20211;-81
2021/01/09 11:13:03;;;;;;;8.27;5.90;;;;;;;2.89;68.15;98353.88;5018002;28;20219;-81
2021/01/09 11:15:29;;;;;;;7.23;5.50;;;;;;;2.93;67.97;98353.88;5017033;28;20235;-81
2021/01/09 11:17:56;;;;;;;7.90;5.10;;;;;;;2.89;67.80;98353.88;5018280;28;20215;-80
2021/01/09 11:20:22;;;;;;;15.00;10.60;;;;;;;2.86;68.27;98361.59;5017416;28;20225;-81
2021/01/09 11:22:49;;;;;;;17.20;12.63;;;;;;;2.80;68.82;98358.22;5016647;28;20976;-80
2021/01/09 11:25:16;;;;;;;9.87;6.40;;;;;;;2.75;68.54;98358.22;5017547;28;20258;-80
2021/01/09 11:27:42;;;;;;;10.00;6.50;;;;;;;2.66;68.59;98353.97;5017935;28;20210;-79
2021/01/09 11:30:09;;;;;;;9.93;6.70;;;;;;;2.61;68.98;98350.56;5015127;28;21029;-80
2021/01/09 11:32:35;;;;;;;9.80;6.60;;;;;;;2.79;68.68;98351.34;5016505;28;20237;-80
2021/01/09 11:35:02;;;;;;;10.10;6.97;;;;;;;2.94;68.48;98347.84;5016696;28;20266;-81
2021/01/09 11:37:29;;;;;;;8.47;6.17;;;;;;;3.81;65.70;98341.25;5016134;28;20218;-80
2021/01/09 11:39:56;;;;;;;8.90;6.17;;;;;;;3.18;67.68;98340.00;5021832;28;20312;-82